sensor_id;sensor_type;location;lat;lon;timestamp;temperature;humidity
29281;DHT22;25048;49.590;11.026;2022-07-18T00:02:00;12.40;99.90
29281;DHT22;25048;49.590;11.026;2022-07-18T00:04:29;12.40;99.90
29281;DHT22;25048;49.590;11.026;2022-07-18T00:06:58;12.30;99.90
29281;DHT22;25048;49.590;11.026;2022-07-18T00:09:25;12.20;99.90
29281;DHT22;25048;49.590;11.026;2022-07-18T00:11:53;12.10;99.90
29281;DHT22;25048;49.590;11.026;2022-07-18T00:14:21;12.00;99.90
29281;DHT22;25048;49.590;11.026;2022-07-18T00:16:49;12.00;99.90
29281;DHT22;25048;49.590;11.026;2022-07-18T00:19:17;11.90;99.90
29281;DHT22;25048;49.590;11.026;2022-07-18T00:21:45;11.90;99.90
29281;DHT22;25048;49.590;11.026;2022-07-18T00:24:12;11.90;99.90
29281;DHT22;25048;49.590;11.026;2022-07-18T00:26:40;11.80;99.90
29281;DHT22;25048;49.590;11.026;2022-07-18T00:29:07;11.80;99.90
29281;DHT22;25048;49.590;11.026;2022-07-18T00:31:35;11.80;99.90
29281;DHT22;25048;49.590;11.026;2022-07-18T00:34:03;11.70;99.90
29281;DHT22;25048;49.590;11.026;2022-07-18T00:36:31;11.70;99.90
29281;DHT22;25048;49.590;11.026;2022-07-18T00:38:58;11.70;99.90
29281;DHT22;25048;49.590;11.026;2022-07-18T00:41:26;11.70;99.90
29281;DHT22;25048;49.590;11.026;2022-07-18T00:43:54;11.60;99.90
29281;DHT22;25048;49.590;11.026;2022-07-18T00:46:24;11.50;99.90
29281;DHT22;25048;49.590;11.026;2022-07-18T00:48:53;11.50;99.90
29281;DHT22;25048;49.590;11.026;2022-07-18T00:51:21;11.40;99.90
29281;DHT22;25048;49.590;11.026;2022-07-18T00:53:49;11.30;99.90
29281;DHT22;25048;49.590;11.026;2022-07-18T00:56:20;11.30;99.90
29281;DHT22;25048;49.590;11.026;2022-07-18T00:58:47;11.30;99.90
29281;DHT22;25048;49.590;11.026;2022-07-18T01:01:14;11.30;99.90
29281;DHT22;25048;49.590;11.026;2022-07-18T01:04:00;11.20;99.90
29281;DHT22;25048;49.590;11.026;2022-07-18T01:06:27;11.20;99.90
29281;DHT22;25048;49.590;11.026;2022-07-18T01:08:57;11.10;99.90
29281;DHT22;25048;49.590;11.026;2022-07-18T01:11:25;11.10;99.90
29281;DHT22;25048;49.590;11.026;2022-07-18T01:13:53;11.00;99.90
29281;DHT22;25048;49.590;11.026;2022-07-18T01:16:21;11.00;99.90
29281;DHT22;25048;49.590;11.026;2022-07-18T01:18:50;11.00;99.90
29281;DHT22;25048;49.590;11.026;2022-07-18T01:21:18;10.90;99.90
29281;DHT22;25048;49.590;11.026;2022-07-18T01:23:46;10.90;99.90
29281;DHT22;25048;49.590;11.026;2022-07-18T01:26:15;10.90;99.90
29281;DHT22;25048;49.590;11.026;2022-07-18T01:28:43;10.80;99.90
29281;DHT22;25048;49.590;11.026;2022-07-18T01:31:11;10.80;99.90
29281;DHT22;25048;49.590;11.026;2022-07-18T01:33:39;10.80;99.90
29281;DHT22;25048;49.590;11.026;2022-07-18T01:36:07;10.70;99.90
29281;DHT22;25048;49.590;11.026;2022-07-18T01:38:35;10.70;99.90
29281;DHT22;25048;49.590;11.026;2022-07-18T01:41:04;10.60;99.90
29281;DHT22;25048;49.590;11.026;2022-07-18T01:43:32;10.60;99.90
29281;DHT22;25048;49.590;11.026;2022-07-18T01:46:00;10.60;99.90
29281;DHT22;25048;49.590;11.026;2022-07-18T01:48:29;10.60;99.90
29281;DHT22;25048;49.590;11.026;2022-07-18T01:50:56;10.50;99.90
29281;DHT22;25048;49.590;11.026;2022-07-18T01:53:24;10.50;99.90
29281;DHT22;25048;49.590;11.026;2022-07-18T01:55:52;10.50;99.90
29281;DHT22;25048;49.590;11.026;2022-07-18T01:58:20;10.50;99.90
29281;DHT22;25048;49.590;11.026;2022-07-18T02:00:47;10.50;99.90
29281;DHT22;25048;49.590;11.026;2022-07-18T02:03:15;10.40;99.90
29281;DHT22;25048;49.590;11.026;2022-07-18T02:05:42;10.40;99.90
29281;DHT22;25048;49.590;11.026;2022-07-18T02:08:10;10.30;99.90
29281;DHT22;25048;49.590;11.026;2022-07-18T02:10:37;10.30;99.90
29281;DHT22;25048;49.590;11.026;2022-07-18T02:13:05;10.30;99.90
29281;DHT22;25048;49.590;11.026;2022-07-18T02:15:32;10.20;99.90
29281;DHT22;25048;49.590;11.026;2022-07-18T02:18:00;10.10;99.90
29281;DHT22;25048;49.590;11.026;2022-07-18T02:20:27;10.10;99.90
29281;DHT22;25048;49.590;11.026;2022-07-18T02:22:55;10.00;99.90
29281;DHT22;25048;49.590;11.026;2022-07-18T02:25:22;10.00;99.90
29281;DHT22;25048;49.590;11.026;2022-07-18T02:27:50;9.90;99.90
29281;DHT22;25048;49.590;11.026;2022-07-18T02:30:17;9.90;99.90
29281;DHT22;25048;49.590;11.026;2022-07-18T02:32:45;9.80;99.90
29281;DHT22;25048;49.590;11.026;2022-07-18T02:35:13;9.80;99.90
29281;DHT22;25048;49.590;11.026;2022-07-18T02:37:40;9.70;99.90
29281;DHT22;25048;49.590;11.026;2022-07-18T02:40:09;9.70;99.90
29281;DHT22;25048;49.590;11.026;2022-07-18T02:42:38;9.60;99.90
29281;DHT22;25048;49.590;11.026;2022-07-18T02:45:07;9.60;99.90
29281;DHT22;25048;49.590;11.026;2022-07-18T02:47:34;9.60;99.90
29281;DHT22;25048;49.590;11.026;2022-07-18T02:50:02;9.50;99.90
29281;DHT22;25048;49.590;11.026;2022-07-18T02:52:30;9.50;99.90
29281;DHT22;25048;49.590;11.026;2022-07-18T02:54:58;9.50;99.90
29281;DHT22;25048;49.590;11.026;2022-07-18T02:57:28;9.40;99.90
29281;DHT22;25048;49.590;11.026;2022-07-18T02:59:55;9.40;99.90
29281;DHT22;25048;49.590;11.026;2022-07-18T03:02:24;9.30;99.90
29281;DHT22;25048;49.590;11.026;2022-07-18T03:04:52;9.30;99.90
29281;DHT22;25048;49.590;11.026;2022-07-18T03:07:19;9.30;99.90
29281;DHT22;25048;49.590;11.026;2022-07-18T03:09:47;9.30;99.90
29281;DHT22;25048;49.590;11.026;2022-07-18T03:12:14;9.30;99.90
29281;DHT22;25048;49.590;11.026;2022-07-18T03:14:42;9.20;99.90
29281;DHT22;25048;49.590;11.026;2022-07-18T03:17:10;9.10;99.90
29281;DHT22;25048;49.590;11.026;2022-07-18T03:19:37;9.20;99.90
29281;DHT22;25048;49.590;11.026;2022-07-18T03:22:05;9.10;99.90
29281;DHT22;25048;49.590;11.026;2022-07-18T03:24:33;9.10;99.90
29281;DHT22;25048;49.590;11.026;2022-07-18T03:27:00;9.10;99.90
29281;DHT22;25048;49.590;11.026;2022-07-18T03:29:28;9.00;99.90
29281;DHT22;25048;49.590;11.026;2022-07-18T03:31:55;9.00;99.90
29281;DHT22;25048;49.590;11.026;2022-07-18T03:34:23;9.00;99.90
29281;DHT22;25048;49.590;11.026;2022-07-18T03:36:51;8.90;99.90
29281;DHT22;25048;49.590;11.026;2022-07-18T03:39:18;9.00;99.90
29281;DHT22;25048;49.590;11.026;2022-07-18T03:41:46;8.90;99.90
29281;DHT22;25048;49.590;11.026;2022-07-18T03:44:13;8.90;99.90
29281;DHT22;25048;49.590;11.026;2022-07-18T03:46:40;8.90;99.90
29281;DHT22;25048;49.590;11.026;2022-07-18T03:49:08;8.90;99.90
29281;DHT22;25048;49.590;11.026;2022-07-18T03:51:35;8.90;99.90
29281;DHT22;25048;49.590;11.026;2022-07-18T03:54:03;8.90;99.90
29281;DHT22;25048;49.590;11.026;2022-07-18T03:56:30;8.90;99.90
29281;DHT22;25048;49.590;11.026;2022-07-18T03:58:58;8.90;99.90
29281;DHT22;25048;49.590;11.026;2022-07-18T04:01:25;9.00;99.90
29281;DHT22;25048;49.590;11.026;2022-07-18T04:03:53;9.00;99.90
29281;DHT22;25048;49.590;11.026;2022-07-18T04:06:20;9.00;99.90
29281;DHT22;25048;49.590;11.026;2022-07-18T04:08:48;9.00;99.90
29281;DHT22;25048;49.590;11.026;2022-07-18T04:11:15;9.00;99.90
29281;DHT22;25048;49.590;11.026;2022-07-18T04:13:44;9.00;99.90
29281;DHT22;25048;49.590;11.026;2022-07-18T04:16:12;9.10;99.90
29281;DHT22;25048;49.590;11.026;2022-07-18T04:18:40;9.10;99.90
29281;DHT22;25048;49.590;11.026;2022-07-18T04:21:07;9.10;99.90
29281;DHT22;25048;49.590;11.026;2022-07-18T04:23:34;9.20;99.90
29281;DHT22;25048;49.590;11.026;2022-07-18T04:26:02;9.20;99.90
29281;DHT22;25048;49.590;11.026;2022-07-18T04:28:30;9.30;99.90
29281;DHT22;25048;49.590;11.026;2022-07-18T04:30:58;9.30;99.90
29281;DHT22;25048;49.590;11.026;2022-07-18T04:33:26;9.30;99.90
29281;DHT22;25048;49.590;11.026;2022-07-18T04:35:53;9.40;99.90
29281;DHT22;25048;49.590;11.026;2022-07-18T04:38:21;9.40;99.90
29281;DHT22;25048;49.590;11.026;2022-07-18T04:40:48;9.50;99.90
29281;DHT22;25048;49.590;11.026;2022-07-18T04:43:16;9.60;99.90
29281;DHT22;25048;49.590;11.026;2022-07-18T04:45:43;9.70;99.90
29281;DHT22;25048;49.590;11.026;2022-07-18T04:48:11;9.80;99.90
29281;DHT22;25048;49.590;11.026;2022-07-18T04:50:38;9.90;99.90
29281;DHT22;25048;49.590;11.026;2022-07-18T04:53:06;10.00;99.90
29281;DHT22;25048;49.590;11.026;2022-07-18T04:55:33;10.10;99.90
29281;DHT22;25048;49.590;11.026;2022-07-18T04:58:01;10.30;99.90
29281;DHT22;25048;49.590;11.026;2022-07-18T05:00:28;10.40;99.90
29281;DHT22;25048;49.590;11.026;2022-07-18T05:02:57;10.50;99.90
29281;DHT22;25048;49.590;11.026;2022-07-18T05:05:25;10.70;99.90
29281;DHT22;25048;49.590;11.026;2022-07-18T05:07:53;10.80;99.90
29281;DHT22;25048;49.590;11.026;2022-07-18T05:10:22;10.90;99.90
29281;DHT22;25048;49.590;11.026;2022-07-18T05:12:52;11.10;99.90
29281;DHT22;25048;49.590;11.026;2022-07-18T05:15:21;11.20;99.90
29281;DHT22;25048;49.590;11.026;2022-07-18T05:17:49;11.40;99.90
29281;DHT22;25048;49.590;11.026;2022-07-18T05:20:20;11.60;99.90
29281;DHT22;25048;49.590;11.026;2022-07-18T05:22:47;11.80;99.90
29281;DHT22;25048;49.590;11.026;2022-07-18T05:25:15;12.00;99.90
29281;DHT22;25048;49.590;11.026;2022-07-18T05:27:43;12.50;99.90
29281;DHT22;25048;49.590;11.026;2022-07-18T05:30:12;13.00;99.90
29281;DHT22;25048;49.590;11.026;2022-07-18T05:32:41;13.40;99.90
29281;DHT22;25048;49.590;11.026;2022-07-18T05:35:10;13.90;99.90
29281;DHT22;25048;49.590;11.026;2022-07-18T05:37:38;14.20;99.90
29281;DHT22;25048;49.590;11.026;2022-07-18T05:40:08;14.30;99.90
29281;DHT22;25048;49.590;11.026;2022-07-18T05:42:36;14.50;99.90
29281;DHT22;25048;49.590;11.026;2022-07-18T05:45:05;14.60;99.90
29281;DHT22;25048;49.590;11.026;2022-07-18T05:47:32;14.80;99.90
29281;DHT22;25048;49.590;11.026;2022-07-18T05:50:00;15.00;99.90
29281;DHT22;25048;49.590;11.026;2022-07-18T05:52:28;15.30;99.90
29281;DHT22;25048;49.590;11.026;2022-07-18T05:54:55;15.70;99.90
29281;DHT22;25048;49.590;11.026;2022-07-18T05:57:23;16.00;99.90
29281;DHT22;25048;49.590;11.026;2022-07-18T05:59:51;16.50;99.90
29281;DHT22;25048;49.590;11.026;2022-07-18T06:02:18;16.90;99.90
29281;DHT22;25048;49.590;11.026;2022-07-18T06:04:46;17.20;99.90
29281;DHT22;25048;49.590;11.026;2022-07-18T06:07:13;17.50;99.90
29281;DHT22;25048;49.590;11.026;2022-07-18T06:09:40;17.80;99.90
29281;DHT22;25048;49.590;11.026;2022-07-18T06:12:09;18.00;99.90
29281;DHT22;25048;49.590;11.026;2022-07-18T06:14:36;18.30;99.90
29281;DHT22;25048;49.590;11.026;2022-07-18T06:17:04;18.40;99.90
29281;DHT22;25048;49.590;11.026;2022-07-18T06:19:32;18.60;99.90
29281;DHT22;25048;49.590;11.026;2022-07-18T06:21:59;18.80;99.90
29281;DHT22;25048;49.590;11.026;2022-07-18T06:24:27;18.90;99.90
29281;DHT22;25048;49.590;11.026;2022-07-18T06:26:55;19.10;99.90
29281;DHT22;25048;49.590;11.026;2022-07-18T06:29:22;19.30;99.60
29281;DHT22;25048;49.590;11.026;2022-07-18T06:31:50;19.40;98.40
29281;DHT22;25048;49.590;11.026;2022-07-18T06:34:17;19.60;96.80
29281;DHT22;25048;49.590;11.026;2022-07-18T06:36:45;19.70;95.90
29281;DHT22;25048;49.590;11.026;2022-07-18T06:39:12;19.80;97.30
29281;DHT22;25048;49.590;11.026;2022-07-18T06:41:42;19.90;95.40
29281;DHT22;25048;49.590;11.026;2022-07-18T06:44:10;20.00;95.50
29281;DHT22;25048;49.590;11.026;2022-07-18T06:46:37;20.10;94.70
29281;DHT22;25048;49.590;11.026;2022-07-18T06:49:05;20.20;94.80
29281;DHT22;25048;49.590;11.026;2022-07-18T06:51:33;20.30;94.40
29281;DHT22;25048;49.590;11.026;2022-07-18T06:54:00;20.40;93.60
29281;DHT22;25048;49.590;11.026;2022-07-18T06:56:28;20.50;94.30
29281;DHT22;25048;49.590;11.026;2022-07-18T06:58:55;20.60;93.90
29281;DHT22;25048;49.590;11.026;2022-07-18T07:01:23;20.80;93.30
29281;DHT22;25048;49.590;11.026;2022-07-18T07:03:51;20.90;92.30
29281;DHT22;25048;49.590;11.026;2022-07-18T07:06:18;21.10;91.50
29281;DHT22;25048;49.590;11.026;2022-07-18T07:08:46;21.20;91.70
29281;DHT22;25048;49.590;11.026;2022-07-18T07:11:13;21.30;90.50
29281;DHT22;25048;49.590;11.026;2022-07-18T07:13:41;21.40;92.60
29281;DHT22;25048;49.590;11.026;2022-07-18T07:16:08;21.50;89.50
29281;DHT22;25048;49.590;11.026;2022-07-18T07:18:36;21.60;90.00
29281;DHT22;25048;49.590;11.026;2022-07-18T07:21:04;21.70;87.50
29281;DHT22;25048;49.590;11.026;2022-07-18T07:23:32;21.80;87.40
29281;DHT22;25048;49.590;11.026;2022-07-18T07:26:00;22.00;88.40
29281;DHT22;25048;49.590;11.026;2022-07-18T07:28:28;22.10;86.30
29281;DHT22;25048;49.590;11.026;2022-07-18T07:30:55;22.20;86.80
29281;DHT22;25048;49.590;11.026;2022-07-18T07:33:23;22.20;86.20
29281;DHT22;25048;49.590;11.026;2022-07-18T07:35:50;22.30;88.20
29281;DHT22;25048;49.590;11.026;2022-07-18T07:38:18;22.50;86.40
29281;DHT22;25048;49.590;11.026;2022-07-18T07:40:46;22.60;83.90
29281;DHT22;25048;49.590;11.026;2022-07-18T07:43:15;22.80;85.20
29281;DHT22;25048;49.590;11.026;2022-07-18T07:45:48;23.00;84.50
29281;DHT22;25048;49.590;11.026;2022-07-18T07:48:18;23.20;83.70
29281;DHT22;25048;49.590;11.026;2022-07-18T07:50:46;23.30;80.30
29281;DHT22;25048;49.590;11.026;2022-07-18T07:53:14;23.50;80.70
29281;DHT22;25048;49.590;11.026;2022-07-18T07:55:41;23.60;81.30
29281;DHT22;25048;49.590;11.026;2022-07-18T07:58:09;23.80;78.70
29281;DHT22;25048;49.590;11.026;2022-07-18T08:00:36;23.90;77.00
29281;DHT22;25048;49.590;11.026;2022-07-18T08:03:06;24.10;76.90
29281;DHT22;25048;49.590;11.026;2022-07-18T08:05:37;24.30;76.60
29281;DHT22;25048;49.590;11.026;2022-07-18T08:08:05;24.50;74.70
29281;DHT22;25048;49.590;11.026;2022-07-18T08:10:33;24.70;73.40
29281;DHT22;25048;49.590;11.026;2022-07-18T08:13:01;24.80;72.90
29281;DHT22;25048;49.590;11.026;2022-07-18T08:15:28;24.80;69.30
29281;DHT22;25048;49.590;11.026;2022-07-18T08:17:56;24.90;71.50
29281;DHT22;25048;49.590;11.026;2022-07-18T08:20:24;25.10;73.30
29281;DHT22;25048;49.590;11.026;2022-07-18T08:22:59;25.30;71.10
29281;DHT22;25048;49.590;11.026;2022-07-18T08:25:27;25.50;68.90
29281;DHT22;25048;49.590;11.026;2022-07-18T08:27:55;25.70;65.90
29281;DHT22;25048;49.590;11.026;2022-07-18T08:30:23;25.70;63.20
29281;DHT22;25048;49.590;11.026;2022-07-18T08:32:50;25.80;62.30
29281;DHT22;25048;49.590;11.026;2022-07-18T08:35:18;25.90;62.00
29281;DHT22;25048;49.590;11.026;2022-07-18T08:37:46;26.00;65.00
29281;DHT22;25048;49.590;11.026;2022-07-18T08:40:14;26.10;63.60
29281;DHT22;25048;49.590;11.026;2022-07-18T08:42:41;26.20;62.80
29281;DHT22;25048;49.590;11.026;2022-07-18T08:45:09;26.30;63.80
29281;DHT22;25048;49.590;11.026;2022-07-18T08:47:37;26.40;63.00
29281;DHT22;25048;49.590;11.026;2022-07-18T08:50:05;26.50;61.30
29281;DHT22;25048;49.590;11.026;2022-07-18T08:52:34;26.70;60.90
29281;DHT22;25048;49.590;11.026;2022-07-18T08:55:04;26.80;61.40
29281;DHT22;25048;49.590;11.026;2022-07-18T08:57:33;27.10;63.40
29281;DHT22;25048;49.590;11.026;2022-07-18T09:00:03;27.30;63.50
29281;DHT22;25048;49.590;11.026;2022-07-18T09:02:31;27.30;60.60
29281;DHT22;25048;49.590;11.026;2022-07-18T09:05:00;27.40;60.10
29281;DHT22;25048;49.590;11.026;2022-07-18T09:07:31;27.50;60.80
29281;DHT22;25048;49.590;11.026;2022-07-18T09:10:00;27.80;62.10
29281;DHT22;25048;49.590;11.026;2022-07-18T09:12:30;28.00;59.10
29281;DHT22;25048;49.590;11.026;2022-07-18T09:15:08;28.20;60.60
29281;DHT22;25048;49.590;11.026;2022-07-18T09:17:37;28.30;57.50
29281;DHT22;25048;49.590;11.026;2022-07-18T09:20:12;28.40;59.60
29281;DHT22;25048;49.590;11.026;2022-07-18T09:22:45;28.50;58.40
29281;DHT22;25048;49.590;11.026;2022-07-18T09:25:17;28.70;59.20
29281;DHT22;25048;49.590;11.026;2022-07-18T09:27:52;28.90;57.40
29281;DHT22;25048;49.590;11.026;2022-07-18T09:33:16;29.30;54.70
29281;DHT22;25048;49.590;11.026;2022-07-18T09:35:26;29.40;53.30
29281;DHT22;25048;49.590;11.026;2022-07-18T09:38:08;29.40;52.40
29281;DHT22;25048;49.590;11.026;2022-07-18T09:40:40;29.60;52.70
29281;DHT22;25048;49.590;11.026;2022-07-18T09:43:17;29.70;50.30
29281;DHT22;25048;49.590;11.026;2022-07-18T09:45:47;29.80;51.80
29281;DHT22;25048;49.590;11.026;2022-07-18T09:48:19;29.90;52.10
29281;DHT22;25048;49.590;11.026;2022-07-18T09:50:58;30.10;51.40
29281;DHT22;25048;49.590;11.026;2022-07-18T09:53:27;30.40;49.60
29281;DHT22;25048;49.590;11.026;2022-07-18T09:56:06;30.60;49.70
29281;DHT22;25048;49.590;11.026;2022-07-18T09:58:35;30.70;47.40
29281;DHT22;25048;49.590;11.026;2022-07-18T10:01:05;30.70;47.70
29281;DHT22;25048;49.590;11.026;2022-07-18T10:03:34;30.80;47.70
29281;DHT22;25048;49.590;11.026;2022-07-18T10:06:03;31.00;44.50
29281;DHT22;25048;49.590;11.026;2022-07-18T10:08:32;31.10;45.60
29281;DHT22;25048;49.590;11.026;2022-07-18T10:11:02;31.30;46.00
29281;DHT22;25048;49.590;11.026;2022-07-18T10:13:31;31.40;45.90
29281;DHT22;25048;49.590;11.026;2022-07-18T10:15:59;31.60;45.30
29281;DHT22;25048;49.590;11.026;2022-07-18T10:18:29;31.70;41.00
29281;DHT22;25048;49.590;11.026;2022-07-18T10:21:05;31.60;42.20
29281;DHT22;25048;49.590;11.026;2022-07-18T10:26:20;31.80;42.30
29281;DHT22;25048;49.590;11.026;2022-07-18T10:31:30;32.20;41.80
29281;DHT22;25048;49.590;11.026;2022-07-18T10:34:11;32.20;41.20
29281;DHT22;25048;49.590;11.026;2022-07-18T10:39:33;32.40;38.80
29281;DHT22;25048;49.590;11.026;2022-07-18T10:44:33;32.30;38.00
29281;DHT22;25048;49.590;11.026;2022-07-18T10:47:08;32.40;41.40
29281;DHT22;25048;49.590;11.026;2022-07-18T10:57:38;33.70;42.10
29281;DHT22;25048;49.590;11.026;2022-07-18T11:00:11;33.90;40.20
29281;DHT22;25048;49.590;11.026;2022-07-18T11:02:47;33.90;40.70
29281;DHT22;25048;49.590;11.026;2022-07-18T11:13:36;33.70;37.40
29281;DHT22;25048;49.590;11.026;2022-07-18T11:16:23;33.70;38.80
29281;DHT22;25048;49.590;11.026;2022-07-18T11:21:33;33.80;35.00
29281;DHT22;25048;49.590;11.026;2022-07-18T11:24:03;33.60;35.90
29281;DHT22;25048;49.590;11.026;2022-07-18T11:26:31;33.70;35.00
29281;DHT22;25048;49.590;11.026;2022-07-18T11:29:06;33.80;37.70
29281;DHT22;25048;49.590;11.026;2022-07-18T11:31:46;33.90;35.80
29281;DHT22;25048;49.590;11.026;2022-07-18T11:34:15;33.90;35.30
29281;DHT22;25048;49.590;11.026;2022-07-18T11:36:45;34.00;34.80
29281;DHT22;25048;49.590;11.026;2022-07-18T11:39:13;33.90;35.00
29281;DHT22;25048;49.590;11.026;2022-07-18T11:41:41;34.10;35.20
29281;DHT22;25048;49.590;11.026;2022-07-18T11:44:17;34.20;34.90
29281;DHT22;25048;49.590;11.026;2022-07-18T11:46:45;34.00;34.90
29281;DHT22;25048;49.590;11.026;2022-07-18T11:49:12;34.00;37.00
29281;DHT22;25048;49.590;11.026;2022-07-18T11:51:44;34.10;35.90
29281;DHT22;25048;49.590;11.026;2022-07-18T11:54:13;34.00;35.60
29281;DHT22;25048;49.590;11.026;2022-07-18T11:56:49;33.90;37.10
29281;DHT22;25048;49.590;11.026;2022-07-18T11:59:17;34.10;37.70
29281;DHT22;25048;49.590;11.026;2022-07-18T12:01:45;34.20;37.70
29281;DHT22;25048;49.590;11.026;2022-07-18T12:04:20;34.40;40.00
29281;DHT22;25048;49.590;11.026;2022-07-18T12:07:13;34.60;35.30
29281;DHT22;25048;49.590;11.026;2022-07-18T12:09:41;34.70;33.00
29281;DHT22;25048;49.590;11.026;2022-07-18T12:12:10;34.70;32.90
29281;DHT22;25048;49.590;11.026;2022-07-18T12:14:38;34.80;34.70
29281;DHT22;25048;49.590;11.026;2022-07-18T12:17:06;35.00;35.30
29281;DHT22;25048;49.590;11.026;2022-07-18T12:19:39;35.00;34.40
29281;DHT22;25048;49.590;11.026;2022-07-18T12:22:11;35.00;32.40
29281;DHT22;25048;49.590;11.026;2022-07-18T12:27:36;35.00;34.80
29281;DHT22;25048;49.590;11.026;2022-07-18T12:30:18;35.10;34.00
29281;DHT22;25048;49.590;11.026;2022-07-18T12:32:56;35.30;32.90
29281;DHT22;25048;49.590;11.026;2022-07-18T12:35:31;35.40;31.70
29281;DHT22;25048;49.590;11.026;2022-07-18T12:38:16;35.40;32.30
29281;DHT22;25048;49.590;11.026;2022-07-18T12:43:26;35.20;32.70
29281;DHT22;25048;49.590;11.026;2022-07-18T12:45:56;35.10;36.00
29281;DHT22;25048;49.590;11.026;2022-07-18T12:48:25;35.10;36.40
29281;DHT22;25048;49.590;11.026;2022-07-18T12:51:02;35.30;34.00
29281;DHT22;25048;49.590;11.026;2022-07-18T12:53:28;35.40;32.30
29281;DHT22;25048;49.590;11.026;2022-07-18T12:55:56;35.50;31.80
29281;DHT22;25048;49.590;11.026;2022-07-18T12:58:24;35.40;32.30
29281;DHT22;25048;49.590;11.026;2022-07-18T13:00:51;35.40;33.90
29281;DHT22;25048;49.590;11.026;2022-07-18T13:03:20;35.50;37.50
29281;DHT22;25048;49.590;11.026;2022-07-18T13:05:49;35.60;36.00
29281;DHT22;25048;49.590;11.026;2022-07-18T13:08:16;35.70;31.00
29281;DHT22;25048;49.590;11.026;2022-07-18T13:10:46;35.70;32.00
29281;DHT22;25048;49.590;11.026;2022-07-18T13:13:13;35.70;31.90
29281;DHT22;25048;49.590;11.026;2022-07-18T13:15:41;35.90;36.80
29281;DHT22;25048;49.590;11.026;2022-07-18T13:18:08;36.10;36.60
29281;DHT22;25048;49.590;11.026;2022-07-18T13:20:36;36.30;35.00
29281;DHT22;25048;49.590;11.026;2022-07-18T13:23:04;36.50;33.00
29281;DHT22;25048;49.590;11.026;2022-07-18T13:25:32;36.70;33.50
29281;DHT22;25048;49.590;11.026;2022-07-18T13:27:59;36.60;32.40
29281;DHT22;25048;49.590;11.026;2022-07-18T13:30:27;36.50;32.20
29281;DHT22;25048;49.590;11.026;2022-07-18T13:32:54;36.40;33.00
29281;DHT22;25048;49.590;11.026;2022-07-18T13:35:22;36.30;36.20
29281;DHT22;25048;49.590;11.026;2022-07-18T13:37:49;36.50;36.30
29281;DHT22;25048;49.590;11.026;2022-07-18T13:40:17;36.50;29.30
29281;DHT22;25048;49.590;11.026;2022-07-18T13:42:44;36.50;32.60
29281;DHT22;25048;49.590;11.026;2022-07-18T13:45:12;36.60;32.30
29281;DHT22;25048;49.590;11.026;2022-07-18T13:47:43;36.60;33.60
29281;DHT22;25048;49.590;11.026;2022-07-18T13:50:11;36.80;34.00
29281;DHT22;25048;49.590;11.026;2022-07-18T13:52:39;37.10;33.00
29281;DHT22;25048;49.590;11.026;2022-07-18T13:55:07;37.20;36.60
29281;DHT22;25048;49.590;11.026;2022-07-18T13:57:35;37.20;34.60
29281;DHT22;25048;49.590;11.026;2022-07-18T14:00:05;37.10;34.30
29281;DHT22;25048;49.590;11.026;2022-07-18T14:02:34;37.00;36.00
29281;DHT22;25048;49.590;11.026;2022-07-18T14:05:02;36.90;32.80
29281;DHT22;25048;49.590;11.026;2022-07-18T14:07:30;37.00;33.50
29281;DHT22;25048;49.590;11.026;2022-07-18T14:09:57;37.10;31.60
29281;DHT22;25048;49.590;11.026;2022-07-18T14:12:25;37.30;33.80
29281;DHT22;25048;49.590;11.026;2022-07-18T14:14:52;37.60;35.10
29281;DHT22;25048;49.590;11.026;2022-07-18T14:17:20;37.90;34.20
29281;DHT22;25048;49.590;11.026;2022-07-18T14:19:47;38.20;31.40
29281;DHT22;25048;49.590;11.026;2022-07-18T14:22:15;38.60;33.50
29281;DHT22;25048;49.590;11.026;2022-07-18T14:24:43;38.50;31.10
29281;DHT22;25048;49.590;11.026;2022-07-18T14:27:10;38.60;32.40
29281;DHT22;25048;49.590;11.026;2022-07-18T14:29:37;38.70;30.60
29281;DHT22;25048;49.590;11.026;2022-07-18T14:32:05;39.00;29.80
29281;DHT22;25048;49.590;11.026;2022-07-18T14:34:34;39.30;32.00
29281;DHT22;25048;49.590;11.026;2022-07-18T14:37:01;39.60;33.30
29281;DHT22;25048;49.590;11.026;2022-07-18T14:39:29;39.90;30.50
29281;DHT22;25048;49.590;11.026;2022-07-18T14:41:56;39.70;28.70
29281;DHT22;25048;49.590;11.026;2022-07-18T14:44:24;39.20;30.70
29281;DHT22;25048;49.590;11.026;2022-07-18T14:46:53;38.70;29.70
29281;DHT22;25048;49.590;11.026;2022-07-18T14:49:21;38.70;32.90
29281;DHT22;25048;49.590;11.026;2022-07-18T14:51:49;39.20;33.10
29281;DHT22;25048;49.590;11.026;2022-07-18T14:54:17;39.70;33.40
29281;DHT22;25048;49.590;11.026;2022-07-18T14:56:44;40.30;32.20
29281;DHT22;25048;49.590;11.026;2022-07-18T14:59:12;40.70;31.70
29281;DHT22;25048;49.590;11.026;2022-07-18T15:01:39;40.60;31.30
29281;DHT22;25048;49.590;11.026;2022-07-18T15:04:07;40.40;29.80
29281;DHT22;25048;49.590;11.026;2022-07-18T15:06:34;39.70;31.00
29281;DHT22;25048;49.590;11.026;2022-07-18T15:09:02;39.20;31.90
29281;DHT22;25048;49.590;11.026;2022-07-18T15:11:30;39.20;30.90
29281;DHT22;25048;49.590;11.026;2022-07-18T15:13:58;39.20;33.70
29281;DHT22;25048;49.590;11.026;2022-07-18T15:16:25;39.60;32.50
29281;DHT22;25048;49.590;11.026;2022-07-18T15:18:53;40.10;31.70
29281;DHT22;25048;49.590;11.026;2022-07-18T15:21:20;40.60;30.20
29281;DHT22;25048;49.590;11.026;2022-07-18T15:23:48;41.00;30.50
29281;DHT22;25048;49.590;11.026;2022-07-18T15:26:16;40.70;28.80
29281;DHT22;25048;49.590;11.026;2022-07-18T15:28:43;40.10;28.60
29281;DHT22;25048;49.590;11.026;2022-07-18T15:31:11;39.50;31.40
29281;DHT22;25048;49.590;11.026;2022-07-18T15:33:38;38.80;31.60
29281;DHT22;25048;49.590;11.026;2022-07-18T15:36:06;38.20;31.50
29281;DHT22;25048;49.590;11.026;2022-07-18T15:38:34;37.50;32.50
29281;DHT22;25048;49.590;11.026;2022-07-18T15:41:05;36.90;33.90
29281;DHT22;25048;49.590;11.026;2022-07-18T15:43:30;36.20;34.40
29281;DHT22;25048;49.590;11.026;2022-07-18T15:45:58;35.60;35.80
29281;DHT22;25048;49.590;11.026;2022-07-18T15:48:25;35.10;32.20
29281;DHT22;25048;49.590;11.026;2022-07-18T15:50:53;34.70;34.20
29281;DHT22;25048;49.590;11.026;2022-07-18T15:53:20;34.40;35.70
29281;DHT22;25048;49.590;11.026;2022-07-18T15:55:48;34.10;35.20
29281;DHT22;25048;49.590;11.026;2022-07-18T15:58:15;34.00;35.40
29281;DHT22;25048;49.590;11.026;2022-07-18T16:00:43;33.80;36.70
29281;DHT22;25048;49.590;11.026;2022-07-18T16:03:10;33.80;34.90
29281;DHT22;25048;49.590;11.026;2022-07-18T16:05:38;34.10;36.40